sensor_id;sensor_type;location;lat;lon;timestamp;pressure;altitude;pressure_sealevel;temperature;humidity
63111;BME280;49201;53.426;10.300;2022-07-04T00:00:08;101807.03;;;16.74;85.48
63111;BME280;49201;53.426;10.300;2022-07-04T00:02:36;101813.09;;;16.73;85.69
63111;BME280;49201;53.426;10.300;2022-07-04T00:05:02;101809.56;;;16.70;86.21
63111;BME280;49201;53.426;10.300;2022-07-04T00:07:28;101804.34;;;16.64;86.32
63111;BME280;49201;53.426;10.300;2022-07-04T00:09:53;101808.63;;;16.63;85.94
63111;BME280;49201;53.426;10.300;2022-07-04T00:12:19;101806.03;;;16.60;86.38
63111;BME280;49201;53.426;10.300;2022-07-04T00:14:44;101803.44;;;16.60;86.04
63111;BME280;49201;53.426;10.300;2022-07-04T00:17:10;101806.84;;;16.55;86.28
63111;BME280;49201;53.426;10.300;2022-07-04T00:19:35;101804.19;;;16.52;86.46
63111;BME280;49201;53.426;10.300;2022-07-04T00:22:01;101809.38;;;16.50;86.57
63111;BME280;49201;53.426;10.300;2022-07-04T00:24:26;101806.72;;;16.46;86.79
63111;BME280;49201;53.426;10.300;2022-07-04T00:26:52;101809.28;;;16.43;86.46
63111;BME280;49201;53.426;10.300;2022-07-04T00:29:17;101814.38;;;16.38;86.44
63111;BME280;49201;53.426;10.300;2022-07-04T00:31:43;101808.25;;;16.32;87.23
63111;BME280;49201;53.426;10.300;2022-07-04T00:34:08;101813.44;;;16.32;87.35
63111;BME280;49201;53.426;10.300;2022-07-04T00:36:34;101812.56;;;16.30;87.69
63111;BME280;49201;53.426;10.300;2022-07-04T00:39:00;101802.97;;;16.23;87.90
63111;BME280;49201;53.426;10.300;2022-07-04T00:41:25;101800.28;;;16.14;88.40
63111;BME280;49201;53.426;10.300;2022-07-04T00:44:17;101803.66;;;16.07;88.33
63111;BME280;49201;53.426;10.300;2022-07-04T00:46:44;101795.88;;;16.05;88.63
63111;BME280;49201;53.426;10.300;2022-07-04T00:49:11;101803.56;;;16.01;88.85
63111;BME280;49201;53.426;10.300;2022-07-04T00:51:38;101791.44;;;15.94;89.25
63111;BME280;49201;53.426;10.300;2022-07-04T00:54:10;101797.38;;;15.88;89.14
63111;BME280;49201;53.426;10.300;2022-07-04T00:56:36;101787.00;;;15.84;89.41
63111;BME280;49201;53.426;10.300;2022-07-04T00:59:03;101789.56;;;15.82;90.17
63111;BME280;49201;53.426;10.300;2022-07-04T01:01:29;101789.47;;;15.76;90.16
63111;BME280;49201;53.426;10.300;2022-07-04T01:03:55;101798.84;;;15.71;90.42
63111;BME280;49201;53.426;10.300;2022-07-04T01:06:21;101795.34;;;15.65;91.30
63111;BME280;49201;53.426;10.300;2022-07-04T01:08:46;101799.56;;;15.61;91.56
63111;BME280;49201;53.426;10.300;2022-07-04T01:11:14;101799.56;;;15.61;91.06
63111;BME280;49201;53.426;10.300;2022-07-04T01:13:39;101801.19;;;15.55;91.82
63111;BME280;49201;53.426;10.300;2022-07-04T01:16:09;101799.47;;;15.54;91.96
63111;BME280;49201;53.426;10.300;2022-07-04T01:18:35;101808.03;;;15.51;92.27
63111;BME280;49201;53.426;10.300;2022-07-04T01:21:01;101808.88;;;15.49;91.73
63111;BME280;49201;53.426;10.300;2022-07-04T01:23:27;101813.09;;;15.44;92.28
63111;BME280;49201;53.426;10.300;2022-07-04T01:25:53;101812.13;;;15.37;93.28
63111;BME280;49201;53.426;10.300;2022-07-04T01:28:20;101810.31;;;15.33;93.63
63111;BME280;49201;53.426;10.300;2022-07-04T01:30:45;101806.81;;;15.30;93.73
63111;BME280;49201;53.426;10.300;2022-07-04T01:33:11;101817.13;;;15.28;93.93
63111;BME280;49201;53.426;10.300;2022-07-04T01:35:36;101813.66;;;15.26;93.72
63111;BME280;49201;53.426;10.300;2022-07-04T01:38:02;101811.91;;;15.25;94.66
63111;BME280;49201;53.426;10.300;2022-07-04T01:40:27;101818.81;;;15.26;94.90
63111;BME280;49201;53.426;10.300;2022-07-04T01:42:53;101817.13;;;15.28;94.14
63111;BME280;49201;53.426;10.300;2022-07-04T01:45:18;101818.81;;;15.26;94.27
63111;BME280;49201;53.426;10.300;2022-07-04T01:47:44;101815.34;;;15.26;94.13
63111;BME280;49201;53.426;10.300;2022-07-04T01:50:10;101815.38;;;15.27;93.74
63111;BME280;49201;53.426;10.300;2022-07-04T01:52:40;101809.31;;;15.24;93.60
63111;BME280;49201;53.426;10.300;2022-07-04T01:55:09;101811.91;;;15.24;93.80
63111;BME280;49201;53.426;10.300;2022-07-04T01:57:36;101816.13;;;15.22;93.58
63111;BME280;49201;53.426;10.300;2022-07-04T02:00:04;101816.13;;;15.20;94.20
63111;BME280;49201;53.426;10.300;2022-07-04T02:02:48;101816.09;;;15.17;94.01
63111;BME280;49201;53.426;10.300;2022-07-04T02:05:13;101817.72;;;15.12;94.00
63111;BME280;49201;53.426;10.300;2022-07-04T02:07:40;101815.97;;;15.10;94.54
63111;BME280;49201;53.426;10.300;2022-07-04T02:10:06;101820.28;;;15.11;94.43
63111;BME280;49201;53.426;10.300;2022-07-04T02:12:31;101818.53;;;15.11;94.44
63111;BME280;49201;53.426;10.300;2022-07-04T02:15:15;101816.78;;;15.09;94.38
63111;BME280;49201;53.426;10.300;2022-07-04T02:17:40;101813.25;;;15.02;94.23
63111;BME280;49201;53.426;10.300;2022-07-04T02:20:06;101821.78;;;15.00;94.05
63111;BME280;49201;53.426;10.300;2022-07-04T02:22:32;101818.38;;;15.01;94.02
63111;BME280;49201;53.426;10.300;2022-07-04T02:24:57;101829.53;;;14.98;94.19
63111;BME280;49201;53.426;10.300;2022-07-04T02:27:23;101826.09;;;14.99;93.79
63111;BME280;49201;53.426;10.300;2022-07-04T02:29:48;101818.44;;;15.05;94.29
63111;BME280;49201;53.426;10.300;2022-07-04T02:32:14;101815.88;;;15.05;94.25
63111;BME280;49201;53.426;10.300;2022-07-04T02:34:39;101829.66;;;15.06;95.23
63111;BME280;49201;53.426;10.300;2022-07-04T02:37:05;101827.06;;;15.06;94.84
63111;BME280;49201;53.426;10.300;2022-07-04T02:39:31;101826.19;;;15.05;95.61
63111;BME280;49201;53.426;10.300;2022-07-04T02:41:56;101820.25;;;15.09;95.59
63111;BME280;49201;53.426;10.300;2022-07-04T02:44:22;101826.25;;;15.08;95.76
63111;BME280;49201;53.426;10.300;2022-07-04T02:46:47;101820.31;;;15.12;96.10
63111;BME280;49201;53.426;10.300;2022-07-04T02:49:12;101820.34;;;15.15;95.96
63111;BME280;49201;53.426;10.300;2022-07-04T02:51:38;101829.00;;;15.19;95.71
63111;BME280;49201;53.426;10.300;2022-07-04T02:54:03;101820.44;;;15.23;96.52
63111;BME280;49201;53.426;10.300;2022-07-04T02:56:29;101821.38;;;15.25;95.58
63111;BME280;49201;53.426;10.300;2022-07-04T02:58:54;101824.75;;;15.22;95.92
63111;BME280;49201;53.426;10.300;2022-07-04T03:01:20;101825.56;;;15.18;95.82
63111;BME280;49201;53.426;10.300;2022-07-04T03:03:46;101819.50;;;15.16;95.96
63111;BME280;49201;53.426;10.300;2022-07-04T03:06:12;101827.25;;;15.16;95.56
63111;BME280;49201;53.426;10.300;2022-07-04T03:08:37;101822.03;;;15.13;96.26
63111;BME280;49201;53.426;10.300;2022-07-04T03:11:04;101825.50;;;15.14;95.85
63111;BME280;49201;53.426;10.300;2022-07-04T03:13:29;101830.59;;;15.11;95.93
63111;BME280;49201;53.426;10.300;2022-07-04T03:15:55;101833.13;;;15.09;96.36
63111;BME280;49201;53.426;10.300;2022-07-04T03:18:21;101844.38;;;15.13;96.12
63111;BME280;49201;53.426;10.300;2022-07-04T03:20:46;101842.63;;;15.10;97.25
63111;BME280;49201;53.426;10.300;2022-07-04T03:23:12;101844.34;;;15.10;96.54
63111;BME280;49201;53.426;10.300;2022-07-04T03:25:38;101847.81;;;15.12;96.70
63111;BME280;49201;53.426;10.300;2022-07-04T03:28:05;101847.84;;;15.13;96.05
63111;BME280;49201;53.426;10.300;2022-07-04T03:30:31;101845.25;;;15.13;96.67
63111;BME280;49201;53.426;10.300;2022-07-04T03:32:56;101846.94;;;15.13;96.66
63111;BME280;49201;53.426;10.300;2022-07-04T03:35:21;101846.94;;;15.13;96.12
63111;BME280;49201;53.426;10.300;2022-07-04T03:37:47;101851.31;;;15.17;96.19
63111;BME280;49201;53.426;10.300;2022-07-04T03:40:12;101861.72;;;15.20;96.22
63111;BME280;49201;53.426;10.300;2022-07-04T03:42:38;101862.56;;;15.19;96.24
63111;BME280;49201;53.426;10.300;2022-07-04T03:45:04;101872.91;;;15.22;95.85
63111;BME280;49201;53.426;10.300;2022-07-04T03:47:31;101880.59;;;15.17;95.57
63111;BME280;49201;53.426;10.300;2022-07-04T03:49:57;101876.28;;;15.16;96.55
63111;BME280;49201;53.426;10.300;2022-07-04T03:52:22;101878.06;;;15.22;95.82
63111;BME280;49201;53.426;10.300;2022-07-04T03:54:48;101874.59;;;15.18;96.27
63111;BME280;49201;53.426;10.300;2022-07-04T03:57:13;101873.84;;;15.25;95.51
63111;BME280;49201;53.426;10.300;2022-07-04T03:59:39;101879.06;;;15.28;95.66
63111;BME280;49201;53.426;10.300;2022-07-04T04:02:04;101881.63;;;15.28;95.83
63111;BME280;49201;53.426;10.300;2022-07-04T04:04:29;101886.78;;;15.28;95.63
63111;BME280;49201;53.426;10.300;2022-07-04T04:07:15;101891.97;;;15.28;95.46
63111;BME280;49201;53.426;10.300;2022-07-04T04:09:40;101893.69;;;15.29;95.48
63111;BME280;49201;53.426;10.300;2022-07-04T04:12:06;101889.47;;;15.33;95.05
63111;BME280;49201;53.426;10.300;2022-07-04T04:14:32;101882.56;;;15.33;95.38
63111;BME280;49201;53.426;10.300;2022-07-04T04:16:57;101893.03;;;15.38;94.98
63111;BME280;49201;53.426;10.300;2022-07-04T04:19:23;101893.88;;;15.38;95.02
63111;BME280;49201;53.426;10.300;2022-07-04T04:21:48;101898.22;;;15.39;95.69
63111;BME280;49201;53.426;10.300;2022-07-04T04:24:14;101898.13;;;15.35;95.76
63111;BME280;49201;53.426;10.300;2022-07-04T04:26:39;101911.13;;;15.39;95.46
63111;BME280;49201;53.426;10.300;2022-07-04T04:29:04;101911.13;;;15.41;95.32
63111;BME280;49201;53.426;10.300;2022-07-04T04:31:30;101908.63;;;15.45;94.73
63111;BME280;49201;53.426;10.300;2022-07-04T04:33:59;101910.41;;;15.48;94.24
63111;BME280;49201;53.426;10.300;2022-07-04T04:36:24;101923.25;;;15.45;95.11
63111;BME280;49201;53.426;10.300;2022-07-04T04:38:50;101919.00;;;15.47;94.86
63111;BME280;49201;53.426;10.300;2022-07-04T04:41:15;101927.59;;;15.47;94.66
63111;BME280;49201;53.426;10.300;2022-07-04T04:43:42;101926.66;;;15.42;94.88
63111;BME280;49201;53.426;10.300;2022-07-04T04:46:08;101931.78;;;15.41;95.26
63111;BME280;49201;53.426;10.300;2022-07-04T04:48:34;101938.72;;;15.42;95.22
63111;BME280;49201;53.426;10.300;2022-07-04T04:50:59;101943.03;;;15.46;95.22
63111;BME280;49201;53.426;10.300;2022-07-04T04:53:25;101937.88;;;15.44;95.04
63111;BME280;49201;53.426;10.300;2022-07-04T04:55:54;101941.41;;;15.49;95.69
63111;BME280;49201;53.426;10.300;2022-07-04T04:58:20;101944.16;;;15.58;94.93
63111;BME280;49201;53.426;10.300;2022-07-04T05:00:46;101953.56;;;15.56;95.00
63111;BME280;49201;53.426;10.300;2022-07-04T05:03:13;101946.00;;;15.67;94.21
63111;BME280;49201;53.426;10.300;2022-07-04T05:05:38;101942.66;;;15.72;93.58
63111;BME280;49201;53.426;10.300;2022-07-04T05:08:04;101937.63;;;15.83;92.89
63111;BME280;49201;53.426;10.300;2022-07-04T05:10:29;101943.09;;;16.01;91.71
63111;BME280;49201;53.426;10.300;2022-07-04T05:12:55;101938.13;;;16.13;91.30
63111;BME280;49201;53.426;10.300;2022-07-04T05:15:21;101933.88;;;16.18;90.43
63111;BME280;49201;53.426;10.300;2022-07-04T05:17:46;101931.38;;;16.22;89.62
63111;BME280;49201;53.426;10.300;2022-07-04T05:20:12;101922.91;;;16.32;88.58
63111;BME280;49201;53.426;10.300;2022-07-04T05:22:37;101916.94;;;16.39;88.12
63111;BME280;49201;53.426;10.300;2022-07-04T05:25:03;101924.91;;;16.54;88.68
63111;BME280;49201;53.426;10.300;2022-07-04T05:27:28;101928.56;;;16.70;88.63
63111;BME280;49201;53.426;10.300;2022-07-04T05:29:56;101932.78;;;16.60;87.88
63111;BME280;49201;53.426;10.300;2022-07-04T05:32:22;101931.09;;;16.64;87.26
63111;BME280;49201;53.426;10.300;2022-07-04T05:34:48;101932.81;;;16.62;86.99
63111;BME280;49201;53.426;10.300;2022-07-04T05:37:13;101936.47;;;16.82;86.47
63111;BME280;49201;53.426;10.300;2022-07-04T05:39:38;101937.56;;;17.02;85.90
63111;BME280;49201;53.426;10.300;2022-07-04T05:42:04;101935.13;;;17.14;85.19
63111;BME280;49201;53.426;10.300;2022-07-04T05:44:29;101936.88;;;17.18;84.51
63111;BME280;49201;53.426;10.300;2022-07-04T05:46:55;101934.56;;;17.42;83.85
63111;BME280;49201;53.426;10.300;2022-07-04T05:49:20;101929.56;;;17.61;83.88
63111;BME280;49201;53.426;10.300;2022-07-04T05:51:46;101922.63;;;17.57;82.80
63111;BME280;49201;53.426;10.300;2022-07-04T05:54:11;101935.59;;;17.62;82.04
63111;BME280;49201;53.426;10.300;2022-07-04T05:56:37;101925.38;;;17.77;81.57
63111;BME280;49201;53.426;10.300;2022-07-04T05:59:05;101925.38;;;17.80;80.31
63111;BME280;49201;53.426;10.300;2022-07-04T06:01:30;101924.41;;;17.67;80.28
63111;BME280;49201;53.426;10.300;2022-07-04T06:03:55;101931.44;;;17.80;80.19
63111;BME280;49201;53.426;10.300;2022-07-04T06:06:21;101933.22;;;17.90;80.21
63111;BME280;49201;53.426;10.300;2022-07-04T06:08:46;101923.84;;;18.06;79.01
63111;BME280;49201;53.426;10.300;2022-07-04T06:11:12;101922.19;;;18.24;78.36
63111;BME280;49201;53.426;10.300;2022-07-04T06:13:39;101923.09;;;18.26;77.21
63111;BME280;49201;53.426;10.300;2022-07-04T06:16:05;101917.19;;;18.51;76.89
63111;BME280;49201;53.426;10.300;2022-07-04T06:18:30;101929.38;;;18.66;75.60
63111;BME280;49201;53.426;10.300;2022-07-04T06:20:56;101925.84;;;18.56;75.28
63111;BME280;49201;53.426;10.300;2022-07-04T06:23:21;101917.25;;;18.69;75.56
63111;BME280;49201;53.426;10.300;2022-07-04T06:25:47;101924.13;;;18.54;74.50
63111;BME280;49201;53.426;10.300;2022-07-04T06:28:13;101925.94;;;18.76;73.46
63111;BME280;49201;53.426;10.300;2022-07-04T06:30:38;101921.69;;;19.06;74.52
63111;BME280;49201;53.426;10.300;2022-07-04T06:33:03;101908.69;;;18.97;72.86
63111;BME280;49201;53.426;10.300;2022-07-04T06:35:31;101904.38;;;18.96;73.36
63111;BME280;49201;53.426;10.300;2022-07-04T06:38:18;101900.03;;;19.06;72.29
63111;BME280;49201;53.426;10.300;2022-07-04T06:40:44;101915.66;;;19.18;72.55
63111;BME280;49201;53.426;10.300;2022-07-04T06:43:10;101916.59;;;19.59;71.04
63111;BME280;49201;53.426;10.300;2022-07-04T06:45:38;101907.88;;;19.94;70.60
63111;BME280;49201;53.426;10.300;2022-07-04T06:48:05;101913.09;;;19.78;69.96
63111;BME280;49201;53.426;10.300;2022-07-04T06:50:32;101915.72;;;19.64;69.48
63111;BME280;49201;53.426;10.300;2022-07-04T06:53:02;101920.88;;;19.93;68.27
63111;BME280;49201;53.426;10.300;2022-07-04T06:55:34;101920.94;;;19.73;68.50
63111;BME280;49201;53.426;10.300;2022-07-04T06:58:00;101917.44;;;19.89;68.46
63111;BME280;49201;53.426;10.300;2022-07-04T07:00:25;101928.69;;;19.85;67.20
63111;BME280;49201;53.426;10.300;2022-07-04T07:02:51;101929.44;;;20.52;65.87
63111;BME280;49201;53.426;10.300;2022-07-04T07:05:16;101922.44;;;20.67;63.10
63111;BME280;49201;53.426;10.300;2022-07-04T07:07:42;101920.63;;;20.81;63.21
63111;BME280;49201;53.426;10.300;2022-07-04T07:10:08;101917.41;;;20.27;64.53
63111;BME280;49201;53.426;10.300;2022-07-04T07:12:34;101921.72;;;20.31;64.00
63111;BME280;49201;53.426;10.300;2022-07-04T07:15:00;101917.41;;;20.16;64.43
63111;BME280;49201;53.426;10.300;2022-07-04T07:17:27;101919.16;;;20.04;62.22
63111;BME280;49201;53.426;10.300;2022-07-04T07:19:53;101919.13;;;20.28;61.97
63111;BME280;49201;53.426;10.300;2022-07-04T07:22:19;101917.19;;;20.79;60.39
63111;BME280;49201;53.426;10.300;2022-07-04T07:24:44;101919.56;;;21.18;59.78
63111;BME280;49201;53.426;10.300;2022-07-04T07:27:10;101922.81;;;21.52;59.11
63111;BME280;49201;53.426;10.300;2022-07-04T07:29:37;101925.50;;;21.40;58.03
63111;BME280;49201;53.426;10.300;2022-07-04T07:32:03;101929.28;;;20.95;59.37
63111;BME280;49201;53.426;10.300;2022-07-04T07:34:28;101933.69;;;20.75;58.06
63111;BME280;49201;53.426;10.300;2022-07-04T07:36:54;101925.53;;;21.35;57.87
63111;BME280;49201;53.426;10.300;2022-07-04T07:39:20;101927.13;;;21.56;57.70
63111;BME280;49201;53.426;10.300;2022-07-04T07:41:45;101927.19;;;21.48;57.00
63111;BME280;49201;53.426;10.300;2022-07-04T07:44:11;101931.72;;;21.24;58.17
63111;BME280;49201;53.426;10.300;2022-07-04T07:46:37;101931.59;;;21.42;56.98
63111;BME280;49201;53.426;10.300;2022-07-04T07:49:02;101922.38;;;22.03;54.76
63111;BME280;49201;53.426;10.300;2022-07-04T07:51:28;101923.91;;;22.19;54.09
63111;BME280;49201;53.426;10.300;2022-07-04T07:53:54;101930.22;;;21.98;54.40
63111;BME280;49201;53.426;10.300;2022-07-04T07:56:19;101934.13;;;21.49;55.79
63111;BME280;49201;53.426;10.300;2022-07-04T07:58:45;101922.94;;;21.32;55.77
63111;BME280;49201;53.426;10.300;2022-07-04T08:01:10;101932.16;;;21.81;54.75
63111;BME280;49201;53.426;10.300;2022-07-04T08:03:36;101932.59;;;21.15;56.03
63111;BME280;49201;53.426;10.300;2022-07-04T08:06:20;101927.06;;;21.62;55.36
63111;BME280;49201;53.426;10.300;2022-07-04T08:08:45;101930.13;;;22.07;53.59
63111;BME280;49201;53.426;10.300;2022-07-04T08:11:11;101931.34;;;22.60;53.24
63111;BME280;49201;53.426;10.300;2022-07-04T08:13:38;101931.56;;;22.37;53.35
63111;BME280;49201;53.426;10.300;2022-07-04T08:16:04;101930.09;;;22.12;53.88
63111;BME280;49201;53.426;10.300;2022-07-04T08:18:30;101934.75;;;21.83;53.86
63111;BME280;49201;53.426;10.300;2022-07-04T08:20:56;101929.56;;;21.77;54.01
63111;BME280;49201;53.426;10.300;2022-07-04T08:23:21;101919.03;;;22.68;52.80
63111;BME280;49201;53.426;10.300;2022-07-04T08:25:47;101927.19;;;22.39;53.48
63111;BME280;49201;53.426;10.300;2022-07-04T08:28:13;101933.69;;;22.00;53.76
63111;BME280;49201;53.426;10.300;2022-07-04T08:30:38;101921.81;;;22.56;52.70
63111;BME280;49201;53.426;10.300;2022-07-04T08:33:04;101921.91;;;23.10;52.27
63111;BME280;49201;53.426;10.300;2022-07-04T08:35:29;101921.28;;;22.23;51.91
63111;BME280;49201;53.426;10.300;2022-07-04T08:37:55;101927.81;;;22.62;52.73
63111;BME280;49201;53.426;10.300;2022-07-04T08:40:27;101928.91;;;22.43;49.78
63111;BME280;49201;53.426;10.300;2022-07-04T08:42:53;101930.84;;;22.24;50.37
63111;BME280;49201;53.426;10.300;2022-07-04T08:45:26;101934.09;;;22.48;51.44
63111;BME280;49201;53.426;10.300;2022-07-04T08:47:56;101929.53;;;23.28;50.86
63111;BME280;49201;53.426;10.300;2022-07-04T08:50:26;101938.09;;;22.74;50.41
63111;BME280;49201;53.426;10.300;2022-07-04T08:52:59;101927.56;;;23.41;49.42
63111;BME280;49201;53.426;10.300;2022-07-04T08:55:25;101935.84;;;23.12;49.30
63111;BME280;49201;53.426;10.300;2022-07-04T08:58:10;101934.59;;;21.99;50.75
63111;BME280;49201;53.426;10.300;2022-07-04T09:00:52;101939.06;;;22.67;50.58
63111;BME280;49201;53.426;10.300;2022-07-04T09:03:19;101932.81;;;23.41;48.31
63111;BME280;49201;53.426;10.300;2022-07-04T09:05:45;101927.78;;;23.80;48.34
63111;BME280;49201;53.426;10.300;2022-07-04T09:08:10;101938.69;;;23.55;49.22
63111;BME280;49201;53.426;10.300;2022-07-04T09:10:36;101936.22;;;23.44;49.33
63111;BME280;49201;53.426;10.300;2022-07-04T09:13:03;101938.28;;;23.24;50.15
63111;BME280;49201;53.426;10.300;2022-07-04T09:15:30;101938.53;;;23.06;50.23
63111;BME280;49201;53.426;10.300;2022-07-04T09:17:57;101935.78;;;23.15;51.14
63111;BME280;49201;53.426;10.300;2022-07-04T09:20:23;101925.66;;;24.03;47.64
63111;BME280;49201;53.426;10.300;2022-07-04T09:22:51;101924.53;;;24.16;47.15
63111;BME280;49201;53.426;10.300;2022-07-04T09:25:17;101914.19;;;24.10;47.22
63111;BME280;49201;53.426;10.300;2022-07-04T09:27:50;101915.31;;;23.96;45.24
63111;BME280;49201;53.426;10.300;2022-07-04T09:30:21;101910.94;;;24.42;45.78
63111;BME280;49201;53.426;10.300;2022-07-04T09:32:48;101912.50;;;24.91;45.17
63111;BME280;49201;53.426;10.300;2022-07-04T09:35:17;101923.38;;;24.73;44.80
63111;BME280;49201;53.426;10.300;2022-07-04T09:37:47;101915.91;;;24.11;45.86
63111;BME280;49201;53.426;10.300;2022-07-04T09:40:30;101919.38;;;24.97;44.54
63111;BME280;49201;53.426;10.300;2022-07-04T09:42:58;101911.03;;;24.37;44.93
63111;BME280;49201;53.426;10.300;2022-07-04T09:45:24;101904.50;;;24.58;45.11
63111;BME280;49201;53.426;10.300;2022-07-04T09:47:53;101910.06;;;24.41;45.49
63111;BME280;49201;53.426;10.300;2022-07-04T09:50:20;101908.56;;;25.10;44.84
63111;BME280;49201;53.426;10.300;2022-07-04T09:52:58;101915.53;;;24.31;43.13
63111;BME280;49201;53.426;10.300;2022-07-04T09:57:54;101906.00;;;25.09;44.24
63111;BME280;49201;53.426;10.300;2022-07-04T10:00:28;101906.38;;;25.30;43.35
63111;BME280;49201;53.426;10.300;2022-07-04T10:02:55;101910.84;;;25.27;42.58
63111;BME280;49201;53.426;10.300;2022-07-04T10:05:24;101916.56;;;24.22;44.22
63111;BME280;49201;53.426;10.300;2022-07-04T10:07:50;101908.75;;;24.21;44.24
63111;BME280;49201;53.426;10.300;2022-07-04T10:10:34;101915.94;;;24.10;44.38
63111;BME280;49201;53.426;10.300;2022-07-04T10:13:04;101913.00;;;23.76;44.76
63111;BME280;49201;53.426;10.300;2022-07-04T10:15:32;101901.53;;;24.74;44.99
63111;BME280;49201;53.426;10.300;2022-07-04T10:17:58;101895.31;;;25.86;43.38
63111;BME280;49201;53.426;10.300;2022-07-04T10:20:24;101896.38;;;25.79;42.56
63111;BME280;49201;53.426;10.300;2022-07-04T10:22:50;101901.16;;;25.97;42.26
63111;BME280;49201;53.426;10.300;2022-07-04T10:25:16;101908.88;;;24.13;43.45
63111;BME280;49201;53.426;10.300;2022-07-04T10:27:42;101906.78;;;25.12;43.41
63111;BME280;49201;53.426;10.300;2022-07-04T10:30:12;101895.72;;;25.00;42.57
63111;BME280;49201;53.426;10.300;2022-07-04T10:32:39;101915.31;;;23.97;43.65
63111;BME280;49201;53.426;10.300;2022-07-04T10:35:08;101904.66;;;24.90;42.69
63111;BME280;49201;53.426;10.300;2022-07-04T10:38:04;101902.94;;;23.55;45.27
63111;BME280;49201;53.426;10.300;2022-07-04T10:48:28;101907.75;;;24.26;45.57
63111;BME280;49201;53.426;10.300;2022-07-04T10:51:07;101904.56;;;24.11;45.48
63111;BME280;49201;53.426;10.300;2022-07-04T10:58:44;101903.22;;;24.34;44.12
63111;BME280;49201;53.426;10.300;2022-07-04T11:01:14;101891.56;;;24.90;44.09
63111;BME280;49201;53.426;10.300;2022-07-04T11:03:50;101901.13;;;24.51;43.49
63111;BME280;49201;53.426;10.300;2022-07-04T11:11:58;101894.00;;;24.15;44.48
63111;BME280;49201;53.426;10.300;2022-07-04T11:14:40;101888.84;;;24.53;44.38
63111;BME280;49201;53.426;10.300;2022-07-04T11:17:12;101897.09;;;25.14;44.61
63111;BME280;49201;53.426;10.300;2022-07-04T11:19:38;101893.22;;;24.53;44.12
63111;BME280;49201;53.426;10.300;2022-07-04T11:22:05;101883.94;;;25.17;42.89
63111;BME280;49201;53.426;10.300;2022-07-04T11:24:32;101888.59;;;23.77;44.86
63111;BME280;49201;53.426;10.300;2022-07-04T11:26:59;101884.13;;;23.84;46.20
63111;BME280;49201;53.426;10.300;2022-07-04T11:29:24;101886.28;;;24.09;44.55
63111;BME280;49201;53.426;10.300;2022-07-04T11:31:51;101878.34;;;24.96;44.76
63111;BME280;49201;53.426;10.300;2022-07-04T11:34:18;101875.81;;;25.63;43.41
63111;BME280;49201;53.426;10.300;2022-07-04T11:36:47;101862.81;;;25.90;43.29
63111;BME280;49201;53.426;10.300;2022-07-04T11:39:18;101862.13;;;25.84;42.78
63111;BME280;49201;53.426;10.300;2022-07-04T11:41:49;101870.78;;;25.54;42.64
63111;BME280;49201;53.426;10.300;2022-07-04T11:44:36;101868.63;;;25.36;42.51
63111;BME280;49201;53.426;10.300;2022-07-04T11:47:42;101863.03;;;25.51;42.30
63111;BME280;49201;53.426;10.300;2022-07-04T11:50:12;101864.91;;;25.46;41.73
63111;BME280;49201;53.426;10.300;2022-07-04T11:52:41;101854.44;;;25.08;41.98
63111;BME280;49201;53.426;10.300;2022-07-04T11:55:10;101857.13;;;26.07;41.01
63111;BME280;49201;53.426;10.300;2022-07-04T11:57:50;101854.97;;;25.57;41.44
63111;BME280;49201;53.426;10.300;2022-07-04T12:00:22;101846.88;;;25.66;39.79
63111;BME280;49201;53.426;10.300;2022-07-04T12:02:50;101842.28;;;26.36;40.10
63111;BME280;49201;53.426;10.300;2022-07-04T12:05:16;101847.09;;;25.57;39.88
63111;BME280;49201;53.426;10.300;2022-07-04T12:07:47;101843.44;;;25.64;40.44
63111;BME280;49201;53.426;10.300;2022-07-04T12:10:18;101837.63;;;26.44;40.11
63111;BME280;49201;53.426;10.300;2022-07-04T12:13:15;101823.06;;;27.18;39.07
63111;BME280;49201;53.426;10.300;2022-07-04T12:15:44;101818.97;;;26.82;39.33
63111;BME280;49201;53.426;10.300;2022-07-04T12:20:50;101829.69;;;24.43;42.06
63111;BME280;49201;53.426;10.300;2022-07-04T12:23:17;101826.53;;;24.69;41.86
63111;BME280;49201;53.426;10.300;2022-07-04T12:25:48;101816.75;;;25.12;42.49
63111;BME280;49201;53.426;10.300;2022-07-04T12:28:15;101816.56;;;24.05;43.69
63111;BME280;49201;53.426;10.300;2022-07-04T12:30:55;101813.94;;;24.46;41.94
63111;BME280;49201;53.426;10.300;2022-07-04T12:33:24;101808.78;;;24.80;41.61
63111;BME280;49201;53.426;10.300;2022-07-04T12:35:51;101797.75;;;25.69;42.30
63111;BME280;49201;53.426;10.300;2022-07-04T12:38:28;101793.28;;;26.05;41.90
63111;BME280;49201;53.426;10.300;2022-07-04T12:41:07;101792.56;;;26.58;39.93
63111;BME280;49201;53.426;10.300;2022-07-04T12:48:49;101793.97;;;26.11;38.92
63111;BME280;49201;53.426;10.300;2022-07-04T12:51:22;101798.69;;;25.35;40.41
63111;BME280;49201;53.426;10.300;2022-07-04T12:53:49;101795.75;;;25.79;40.51
63111;BME280;49201;53.426;10.300;2022-07-04T12:56:33;101793.81;;;26.45;39.89
63111;BME280;49201;53.426;10.300;2022-07-04T12:59:04;101795.75;;;26.11;39.70
63111;BME280;49201;53.426;10.300;2022-07-04T13:01:30;101794.66;;;25.55;41.91
63111;BME280;49201;53.426;10.300;2022-07-04T13:03:55;101795.38;;;24.93;42.78
63111;BME280;49201;53.426;10.300;2022-07-04T13:06:21;101790.69;;;25.41;42.05
63111;BME280;49201;53.426;10.300;2022-07-04T13:08:47;101793.47;;;25.67;41.10
63111;BME280;49201;53.426;10.300;2022-07-04T13:11:12;101788.19;;;25.68;40.31